Murphy City, Minnesota
Current Conditions -  °F | °C
As of 3:33 PM on Friday 24 Oct 2014 (Local Time) from KELO Reporting Station
Clear Clear  
Wind Chill: 66°   Ceiling: Unl
Heat Index: 66°   Visibility: 10mi
Dew Point: 41°   Wind: 8mph
Humidity: 40%   Direction: 240°WSW
Pressure: 29.71"   Gusts: 16mph
Location:  47.7823°N, 91.1739°W
Report Text: KELO 242033Z AUTO 24007G14KT 10SM CLR 19/05 A2971 RMK AO2
Loading
Personal Weather Stations






























Interactive Weather Map
Tropical Storm Tracking
New forecast layout! Learn more

10-Day Weather Forecast

Advertisements
Track Severe Weather on mobile